Time;durP1;ratioP1;P1;durP2;ratioP2;P2;SDS_P1;SDS_P2;PMS_P1;PMS_P2;Temp;Humidity;BMP_temperature;BMP_pressure;BME280_temperature;BME280_humidity;BME280_pressure;Samples;Min_cycle;Max_cycle;Signal;HPM_P1;HPM_P2
2023/04/26 00:00:41;;;;;;;11.20;4.95;;;;;;;7.45;57.42;101842.88;5084840;28;20028;-62
2023/04/26 00:03:07;;;;;;;10.10;5.22;;;;;;;7.43;57.13;101850.53;5089217;28;20032;-62
2023/04/26 00:05:33;;;;;;;11.35;5.22;;;;;;;7.40;56.82;101850.94;5090361;28;20044;-62
2023/04/26 00:07:59;;;;;;;9.63;5.07;;;;;;;7.33;57.68;101839.03;5072564;28;20499;-62
2023/04/26 00:10:24;;;;;;;9.75;5.75;;;;;;;7.34;57.23;101844.31;5078377;28;20040;-62
2023/04/26 00:12:49;;;;;;;10.50;5.43;;;;;;;7.31;56.91;101842.00;5089886;28;20071;-62
2023/04/26 00:15:15;;;;;;;9.10;5.20;;;;;;;7.26;57.27;101843.66;5094224;28;20079;-62
2023/04/26 00:17:41;;;;;;;10.13;5.32;;;;;;;7.22;57.20;101843.22;5092819;28;20469;-62
2023/04/26 00:20:09;;;;;;;10.98;5.75;;;;;;;7.19;57.84;101848.31;5081101;28;20036;-62
2023/04/26 00:22:34;;;;;;;10.57;5.57;;;;;;;7.15;57.18;101847.88;5093438;28;20040;-62
2023/04/26 00:24:59;;;;;;;9.10;5.43;;;;;;;7.13;57.95;101845.31;5089523;28;20027;-62
2023/04/26 00:27:25;;;;;;;8.18;5.38;;;;;;;7.11;57.17;101847.44;5073032;28;20044;-63
2023/04/26 00:29:50;;;;;;;9.70;5.82;;;;;;;7.08;57.70;101844.25;5076270;28;20041;-62
2023/04/26 00:32:15;;;;;;;11.43;5.00;;;;;;;7.10;57.68;101842.97;5093045;28;20028;-62
2023/04/26 00:34:41;;;;;;;8.40;5.25;;;;;;;7.09;57.52;101851.47;5090839;28;20028;-62
2023/04/26 00:37:06;;;;;;;10.18;5.65;;;;;;;7.03;58.42;101844.84;5078816;28;20115;-62
2023/04/26 00:39:32;;;;;;;10.98;5.70;;;;;;;7.00;57.87;101837.00;5090359;28;20507;-63
2023/04/26 00:41:58;;;;;;;11.13;5.88;;;;;;;6.99;58.06;101849.06;5092023;28;20040;-62
2023/04/26 00:44:23;;;;;;;10.80;5.63;;;;;;;7.05;57.93;101848.25;5093986;28;20043;-62
2023/04/26 00:46:51;;;;;;;9.02;6.10;;;;;;;7.01;58.40;101849.72;5088297;28;20032;-62
2023/04/26 00:49:20;;;;;;;11.65;6.07;;;;;;;7.00;58.57;101845.28;5085747;28;20089;-62
2023/04/26 00:51:46;;;;;;;8.20;6.18;;;;;;;7.00;58.47;101849.94;5078884;28;20498;-62
2023/04/26 00:54:13;;;;;;;9.88;6.43;;;;;;;6.97;58.07;101845.69;5090039;28;20035;-62
2023/04/26 00:56:39;;;;;;;8.30;5.72;;;;;;;6.93;58.00;101846.31;5083759;28;20059;-62
2023/04/26 00:59:04;;;;;;;9.05;6.32;;;;;;;6.93;58.12;101841.63;5072469;28;20498;-62
2023/04/26 01:01:29;;;;;;;9.60;5.63;;;;;;;6.89;57.83;101848.63;5083832;28;20036;-63
2023/04/26 01:03:55;;;;;;;9.85;6.10;;;;;;;6.85;58.54;101841.81;5091813;28;20110;-63
2023/04/26 01:06:21;;;;;;;8.82;5.93;;;;;;;6.77;58.43;101845.56;5081066;28;20035;-63
2023/04/26 01:08:46;;;;;;;10.23;6.07;;;;;;;6.76;57.96;101837.50;5072061;28;20107;-63
2023/04/26 01:11:13;;;;;;;13.98;6.20;;;;;;;6.76;58.21;101841.13;5077561;28;20020;-63
2023/04/26 01:13:40;;;;;;;8.52;6.20;;;;;;;6.75;58.70;101841.31;5072187;28;20028;-63
2023/04/26 01:16:07;;;;;;;9.13;6.22;;;;;;;6.74;58.25;101843.22;5065964;28;20045;-63
2023/04/26 01:18:32;;;;;;;8.55;5.40;;;;;;;6.78;58.11;101849.19;5053308;28;20108;-63
2023/04/26 01:20:57;;;;;;;10.93;6.35;;;;;;;6.76;58.77;101845.75;5058042;28;20116;-63
2023/04/26 01:23:23;;;;;;;9.77;6.05;;;;;;;6.74;58.56;101839.63;5057777;28;20025;-63
2023/04/26 01:25:48;;;;;;;9.35;6.20;;;;;;;6.68;58.65;101843.16;5056531;28;20033;-63
2023/04/26 01:28:13;;;;;;;10.52;6.68;;;;;;;6.67;58.86;101841.47;5070736;28;20043;-63
2023/04/26 01:30:39;;;;;;;14.60;6.60;;;;;;;6.61;58.78;101843.16;5072704;28;20039;-63
2023/04/26 01:33:04;;;;;;;8.82;6.28;;;;;;;6.60;58.53;101855.22;5054825;28;20032;-63
2023/04/26 01:35:29;;;;;;;10.40;6.00;;;;;;;6.56;58.67;101860.31;5067693;28;20357;-63
2023/04/26 01:37:55;;;;;;;10.68;6.18;;;;;;;6.54;58.87;101851.38;5064319;28;20112;-63
2023/04/26 01:40:20;;;;;;;13.00;6.05;;;;;;;6.53;58.84;101857.97;5068777;28;20075;-62
2023/04/26 01:42:46;;;;;;;11.73;6.70;;;;;;;6.51;58.95;101857.28;5064201;28;20105;-63
2023/04/26 01:45:11;;;;;;;9.43;6.28;;;;;;;6.49;58.83;101864.09;5070900;28;20032;-63
2023/04/26 01:47:36;;;;;;;16.40;6.80;;;;;;;6.45;58.96;101847.09;5060445;28;20020;-63
2023/04/26 01:50:02;;;;;;;11.07;6.45;;;;;;;6.48;59.06;101846.66;5051369;28;20036;-63
2023/04/26 01:52:27;;;;;;;10.25;6.40;;;;;;;6.46;59.11;101840.50;5068453;28;20078;-63
2023/04/26 01:54:52;;;;;;;9.90;6.03;;;;;;;6.46;59.01;101842.41;5062106;28;20384;-63
2023/04/26 01:57:18;;;;;;;9.85;6.80;;;;;;;6.37;59.14;101839.81;5053884;28;20036;-63
2023/04/26 01:59:43;;;;;;;8.63;6.15;;;;;;;6.42;58.89;101844.72;5062038;28;20079;-63
2023/04/26 02:02:08;;;;;;;10.18;7.22;;;;;;;6.40;58.49;101855.09;5072149;28;20101;-63
2023/04/26 02:04:34;;;;;;;11.57;6.35;;;;;;;6.38;59.24;101857.22;5068194;28;20495;-63
2023/04/26 02:06:59;;;;;;;14.73;6.43;;;;;;;6.35;58.85;101846.56;5071892;28;20032;-63
2023/04/26 02:09:25;;;;;;;11.52;6.70;;;;;;;6.34;59.05;101853.16;5061059;28;20038;-62
2023/04/26 02:11:50;;;;;;;10.32;6.38;;;;;;;6.30;58.85;101851.84;5051467;28;20468;-62
2023/04/26 02:14:15;;;;;;;11.45;6.60;;;;;;;6.29;58.46;101852.91;5051857;28;20036;-62
2023/04/26 02:16:41;;;;;;;9.95;6.10;;;;;;;6.28;58.61;101851.19;5071507;28;20840;-62
2023/04/26 02:19:09;;;;;;;9.07;6.00;;;;;;;6.24;58.84;101847.13;5071777;28;20029;-62
2023/04/26 02:21:58;;;;;;;10.35;6.50;;;;;;;6.26;58.85;101850.53;5071411;28;20024;-62
2023/04/26 02:24:24;;;;;;;9.70;6.97;;;;;;;6.19;59.22;101844.97;5088943;28;20081;-62
2023/04/26 02:26:50;;;;;;;9.02;6.25;;;;;;;6.14;59.17;101847.47;5082530;28;20021;-62
2023/04/26 02:29:16;;;;;;;10.82;6.60;;;;;;;6.12;59.00;101844.91;5070629;28;20105;-62
2023/04/26 02:31:41;;;;;;;10.60;7.25;;;;;;;6.10;59.27;101846.19;5079260;28;20459;-62
2023/04/26 02:34:06;;;;;;;10.18;6.38;;;;;;;6.10;58.97;101843.41;5074027;28;20040;-62
2023/04/26 02:36:32;;;;;;;12.13;6.63;;;;;;;6.08;59.08;101846.34;5085128;28;20032;-62
2023/04/26 02:38:58;;;;;;;12.90;7.32;;;;;;;6.05;58.91;101835.75;5091099;28;20371;-62
2023/04/26 02:41:23;;;;;;;8.75;6.30;;;;;;;6.01;59.07;101837.22;5091785;28;20081;-62
2023/04/26 02:43:49;;;;;;;10.55;6.90;;;;;;;5.95;59.37;101843.50;5091548;28;20047;-62
2023/04/26 02:46:14;;;;;;;13.02;7.45;;;;;;;5.93;59.31;101842.81;5087973;28;20364;-62
2023/04/26 02:48:39;;;;;;;11.70;6.90;;;;;;;5.88;59.24;101846.16;5075279;28;20467;-62
2023/04/26 02:51:05;;;;;;;14.07;7.57;;;;;;;5.86;59.33;101836.41;5083888;28;20757;-62
2023/04/26 02:53:30;;;;;;;11.00;7.15;;;;;;;5.85;59.51;101846.53;5071365;28;20040;-62
2023/04/26 02:55:55;;;;;;;10.63;7.75;;;;;;;5.88;59.29;101839.78;5070898;28;20036;-62
2023/04/26 02:58:20;;;;;;;11.88;8.07;;;;;;;5.89;59.48;101836.84;5072204;28;20046;-62
2023/04/26 03:00:47;;;;;;;12.07;7.25;;;;;;;5.87;59.46;101827.94;5076023;28;20028;-63
2023/04/26 03:03:12;;;;;;;13.95;7.65;;;;;;;5.89;60.01;101833.22;5085320;28;20028;-62
2023/04/26 03:05:38;;;;;;;11.68;7.50;;;;;;;5.90;59.48;101834.94;5073900;28;20024;-62
2023/04/26 03:08:03;;;;;;;11.43;7.53;;;;;;;5.86;59.63;101834.50;5090808;28;20174;-62
2023/04/26 03:10:29;;;;;;;15.02;7.57;;;;;;;5.82;59.37;101830.44;5082633;28;20115;-62
2023/04/26 03:12:54;;;;;;;11.68;7.75;;;;;;;5.82;59.52;101829.59;5087635;28;20024;-62
2023/04/26 03:15:19;;;;;;;10.63;7.28;;;;;;;5.79;59.69;101830.81;5083373;28;20432;-63
2023/04/26 03:17:45;;;;;;;10.90;6.85;;;;;;;5.76;59.53;101819.34;5075919;28;20020;-61
2023/04/26 03:20:10;;;;;;;13.52;7.93;;;;;;;5.73;59.34;101837.09;5079752;28;20036;-62
2023/04/26 03:22:35;;;;;;;11.70;8.13;;;;;;;5.68;59.77;101827.75;5090254;28;20106;-62
2023/04/26 03:25:02;;;;;;;9.60;7.50;;;;;;;5.70;58.78;101825.63;5090770;28;20031;-63
2023/04/26 03:27:28;;;;;;;10.23;7.65;;;;;;;5.70;59.71;101825.63;5071584;28;20032;-62
2023/04/26 03:29:53;;;;;;;14.43;7.95;;;;;;;5.67;58.74;101824.13;5070010;28;20039;-62
2023/04/26 03:32:18;;;;;;;10.65;7.38;;;;;;;5.62;59.50;101818.38;5082862;28;20038;-62
2023/04/26 03:34:44;;;;;;;9.13;7.32;;;;;;;5.62;59.52;101815.63;5083636;28;20428;-62
2023/04/26 03:37:09;;;;;;;11.05;8.20;;;;;;;5.59;59.44;101819.63;5079361;28;20043;-62
2023/04/26 03:39:34;;;;;;;10.80;7.35;;;;;;;5.55;59.49;101815.53;5070319;28;20057;-62
2023/04/26 03:42:00;;;;;;;12.05;7.05;;;;;;;5.51;59.29;101808.72;5079870;28;20079;-62
2023/04/26 03:44:26;;;;;;;12.98;7.18;;;;;;;5.51;59.67;101811.47;5071601;28;20053;-62
2023/04/26 03:46:51;;;;;;;9.02;7.60;;;;;;;5.50;60.17;101814.41;5087448;28;20028;-62
2023/04/26 03:49:16;;;;;;;10.77;7.13;;;;;;;5.49;59.96;101821.81;5074645;28;20062;-62
2023/04/26 03:51:41;;;;;;;13.50;7.85;;;;;;;5.53;59.80;101819.53;5074206;28;20037;-62
2023/04/26 03:54:07;;;;;;;14.93;8.07;;;;;;;5.50;60.04;101826.31;5082647;28;20123;-62
2023/04/26 03:56:32;;;;;;;13.27;8.13;;;;;;;5.51;59.82;101822.50;5070643;28;20032;-63
2023/04/26 03:58:57;;;;;;;12.45;7.68;;;;;;;5.48;60.01;101839.41;5084666;28;20032;-62
2023/04/26 04:01:22;;;;;;;12.38;7.32;;;;;;;5.45;59.70;101828.78;5076651;28;20052;-62
2023/04/26 04:03:48;;;;;;;17.58;8.70;;;;;;;5.47;59.94;101836.84;5072287;28;20317;-61
2023/04/26 04:06:13;;;;;;;12.27;8.30;;;;;;;5.47;59.78;101832.19;5086928;28;20085;-61
2023/04/26 04:08:38;;;;;;;12.73;8.52;;;;;;;5.47;60.08;101834.94;5072564;28;20033;-63
2023/04/26 04:11:04;;;;;;;15.07;9.25;;;;;;;5.40;59.95;101834.88;5074822;28;20036;-63
2023/04/26 04:13:29;;;;;;;13.07;8.15;;;;;;;5.40;59.93;101825.75;5090022;28;20044;-63
2023/04/26 04:15:54;;;;;;;11.23;8.20;;;;;;;5.40;59.80;101818.34;5081652;28;20124;-63
2023/04/26 04:18:20;;;;;;;13.80;8.82;;;;;;;5.43;60.49;101830.03;5075732;28;20528;-63
2023/04/26 04:20:45;;;;;;;12.60;7.63;;;;;;;5.39;59.81;101824.06;5084003;28;20033;-63
2023/04/26 04:23:10;;;;;;;14.52;8.70;;;;;;;5.38;59.95;101825.09;5069231;28;20074;-63
2023/04/26 04:25:35;;;;;;;15.50;8.68;;;;;;;5.38;60.29;101825.09;5084733;28;20061;-63
2023/04/26 04:28:02;;;;;;;14.90;8.23;;;;;;;5.35;60.28;101828.25;5089998;28;20047;-63
2023/04/26 04:30:28;;;;;;;10.90;7.68;;;;;;;5.29;59.95;101831.78;5085010;28;20514;-63
2023/04/26 04:32:54;;;;;;;16.02;8.30;;;;;;;5.29;60.13;101829.03;5069816;28;20040;-63
2023/04/26 04:35:21;;;;;;;13.75;8.18;;;;;;;5.28;60.45;101835.59;5067573;28;20032;-63
2023/04/26 04:37:48;;;;;;;18.52;9.27;;;;;;;5.24;60.41;101826.84;5068798;28;20085;-63
2023/04/26 04:40:14;;;;;;;15.73;8.60;;;;;;;5.25;60.49;101830.47;5085881;28;20039;-63
2023/04/26 04:42:40;;;;;;;16.58;9.13;;;;;;;5.26;60.91;101841.25;5089795;28;20036;-63
2023/04/26 04:45:06;;;;;;;15.13;9.38;;;;;;;5.26;60.72;101835.75;5074680;28;20475;-63
2023/04/26 04:47:32;;;;;;;17.83;8.85;;;;;;;5.25;61.14;101839.56;5087659;28;20051;-63
2023/04/26 04:49:59;;;;;;;17.00;9.63;;;;;;;5.29;61.42;101842.78;5079984;28;20029;-63
2023/04/26 04:52:24;;;;;;;15.32;9.70;;;;;;;5.30;61.47;101838.97;5080420;28;20399;-63
2023/04/26 04:54:50;;;;;;;16.55;9.13;;;;;;;5.28;61.21;101854.84;5080461;28;20028;-63
2023/04/26 04:57:15;;;;;;;13.05;9.35;;;;;;;5.29;61.26;101859.31;5093636;28;20522;-64
2023/04/26 04:59:41;;;;;;;19.80;10.43;;;;;;;5.29;61.44;101848.28;5092834;28;20131;-63
2023/04/26 05:02:06;;;;;;;14.23;9.48;;;;;;;5.32;61.96;101845.16;5072657;28;20028;-62
2023/04/26 05:04:33;;;;;;;18.40;11.10;;;;;;;5.38;61.29;101853.50;5080460;28;20131;-62
2023/04/26 05:06:58;;;;;;;14.85;10.13;;;;;;;5.36;61.55;101858.34;5085376;28;20058;-63
2023/04/26 05:09:24;;;;;;;15.40;10.23;;;;;;;5.36;61.49;101857.47;5080155;28;20024;-62
2023/04/26 05:11:49;;;;;;;20.02;10.98;;;;;;;5.42;62.26;101859.44;5082002;28;20230;-62
2023/04/26 05:14:14;;;;;;;17.02;10.63;;;;;;;5.47;61.94;101847.88;5087165;28;20090;-62
2023/04/26 05:16:40;;;;;;;19.75;10.70;;;;;;;5.50;62.00;101853.84;5082568;28;20044;-62
2023/04/26 05:19:05;;;;;;;16.65;11.35;;;;;;;5.58;62.16;101855.59;5075543;28;20151;-62
2023/04/26 05:21:31;;;;;;;18.58;11.73;;;;;;;5.58;61.88;101861.97;5072402;28;20581;-62
2023/04/26 05:23:56;;;;;;;18.20;11.13;;;;;;;5.63;62.04;101864.13;5076489;28;20879;-62
2023/04/26 05:26:21;;;;;;;17.85;11.32;;;;;;;5.66;62.13;101863.75;5073101;28;20715;-62
2023/04/26 05:28:47;;;;;;;19.88;11.00;;;;;;;5.70;62.01;101853.16;5076436;28;20476;-61
2023/04/26 05:31:12;;;;;;;20.90;11.52;;;;;;;5.70;62.44;101861.44;5081766;28;20040;-61
2023/04/26 05:33:37;;;;;;;18.73;11.07;;;;;;;5.70;62.55;101853.16;5091981;28;20024;-61
2023/04/26 05:36:03;;;;;;;21.30;10.98;;;;;;;5.76;62.07;101855.16;5084232;28;20468;-61
2023/04/26 05:38:29;;;;;;;24.55;11.63;;;;;;;5.73;62.35;101859.13;5081817;28;20491;-62
2023/04/26 05:40:54;;;;;;;25.50;12.48;;;;;;;5.75;62.20;101870.84;5089303;28;20027;-61
2023/04/26 05:43:20;;;;;;;22.10;11.57;;;;;;;5.75;62.56;101867.22;5078977;28;20391;-61
2023/04/26 05:45:51;;;;;;;19.98;12.00;;;;;;;5.82;62.39;101859.88;5083541;28;20105;-63
2023/04/26 05:48:17;;;;;;;22.52;13.10;;;;;;;5.84;62.66;101860.53;5072610;28;20063;-62
2023/04/26 05:50:42;;;;;;;21.25;12.20;;;;;;;5.86;62.90;101858.44;5079324;28;20040;-64
2023/04/26 05:53:07;;;;;;;19.30;11.70;;;;;;;5.89;62.74;101858.03;5079689;28;20039;-62
2023/04/26 05:55:35;;;;;;;22.10;12.88;;;;;;;5.91;62.74;101859.53;5078633;28;20064;-62
2023/04/26 05:58:01;;;;;;;19.80;12.00;;;;;;;5.96;62.36;101860.88;5078052;28;20036;-62
2023/04/26 06:00:26;;;;;;;19.58;11.77;;;;;;;6.01;62.12;101852.88;5074351;28;20043;-62
2023/04/26 06:02:51;;;;;;;18.98;11.40;;;;;;;6.06;61.98;101859.50;5072154;28;20078;-61
2023/04/26 06:05:17;;;;;;;16.65;10.75;;;;;;;6.13;62.26;101860.41;5071815;28;20082;-62
2023/04/26 06:07:43;;;;;;;21.17;11.38;;;;;;;6.20;62.67;101862.34;5062540;28;20126;-62
2023/04/26 06:10:09;;;;;;;18.42;11.20;;;;;;;6.25;62.30;101851.56;5081956;28;20139;-62
2023/04/26 06:12:34;;;;;;;20.60;11.52;;;;;;;6.35;62.50;101857.59;5076528;28;20213;-62
2023/04/26 06:14:59;;;;;;;23.33;10.65;;;;;;;6.44;62.69;101867.41;5072829;28;20032;-63
2023/04/26 06:17:25;;;;;;;18.95;11.63;;;;;;;6.50;62.67;101855.59;5075064;28;20047;-62
2023/04/26 06:19:50;;;;;;;21.15;11.68;;;;;;;6.62;62.05;101875.19;5074796;28;20043;-62
2023/04/26 06:22:16;;;;;;;19.27;11.07;;;;;;;6.67;61.75;101867.16;5076868;28;20050;-62
2023/04/26 06:24:41;;;;;;;18.48;11.48;;;;;;;6.73;61.68;101865.50;5076926;28;20035;-62
2023/04/26 06:27:06;;;;;;;20.35;11.73;;;;;;;6.77;61.84;101867.66;5072470;28;20087;-62
2023/04/26 06:29:32;;;;;;;19.77;10.90;;;;;;;6.82;62.34;101872.56;5071991;28;20356;-62
2023/04/26 06:31:57;;;;;;;19.27;11.60;;;;;;;6.81;61.64;101876.38;5069734;28;20339;-63
2023/04/26 06:34:23;;;;;;;18.98;10.80;;;;;;;6.86;61.75;101882.97;5068758;28;20024;-63
2023/04/26 06:36:48;;;;;;;19.80;11.15;;;;;;;6.91;62.00;101879.59;5072203;28;20024;-62
2023/04/26 06:39:13;;;;;;;14.90;10.25;;;;;;;6.96;61.64;101885.38;5074179;28;20020;-63
2023/04/26 06:41:39;;;;;;;20.38;11.00;;;;;;;7.05;61.54;101888.81;5090861;28;20540;-63
2023/04/26 06:44:04;;;;;;;15.35;10.68;;;;;;;7.17;62.03;101884.41;5075269;28;20426;-62
2023/04/26 06:46:29;;;;;;;18.58;10.57;;;;;;;7.26;61.05;101896.13;5079340;28;20472;-64
2023/04/26 06:48:55;;;;;;;15.60;10.55;;;;;;;7.30;61.10;101891.91;5072987;28;20119;-63
2023/04/26 06:51:20;;;;;;;19.02;10.50;;;;;;;7.31;61.35;101891.72;5072064;28;20463;-63
2023/04/26 06:53:47;;;;;;;17.83;10.68;;;;;;;7.32;61.33;101890.66;5073925;28;20043;-62
2023/04/26 06:56:12;;;;;;;17.25;10.85;;;;;;;7.31;61.44;101896.34;5076227;28;20838;-61
2023/04/26 06:58:56;;;;;;;19.52;10.38;;;;;;;7.31;62.22;101890.84;5079307;28;20562;-63
2023/04/26 07:01:21;;;;;;;16.88;10.10;;;;;;;7.30;62.00;101891.91;5075726;28;20039;-62
2023/04/26 07:03:47;;;;;;;21.30;9.85;;;;;;;7.34;61.81;101890.44;5077031;28;20753;-62
2023/04/26 07:06:12;;;;;;;19.52;10.32;;;;;;;7.36;62.30;101889.19;5070330;28;20039;-60
2023/04/26 07:08:37;;;;;;;13.65;9.43;;;;;;;7.43;62.06;101891.09;5072527;28;20154;-61
2023/04/26 07:11:08;;;;;;;14.27;10.18;;;;;;;7.52;62.34;101892.63;5078286;28;20040;-61
2023/04/26 07:13:34;;;;;;;17.15;9.05;;;;;;;7.52;61.28;101893.47;5086449;28;20173;-61
2023/04/26 07:15:59;;;;;;;15.93;8.75;;;;;;;7.56;61.89;101900.28;5078961;28;20501;-59
2023/04/26 07:18:25;;;;;;;16.70;8.98;;;;;;;7.60;61.17;101898.81;5072195;28;20894;-62
2023/04/26 07:20:50;;;;;;;13.68;8.32;;;;;;;7.67;61.25;101898.00;5079629;28;20027;-61
2023/04/26 07:23:15;;;;;;;14.45;7.78;;;;;;;7.67;60.99;101892.47;5080144;28;20859;-62
2023/04/26 07:25:41;;;;;;;13.10;7.38;;;;;;;7.73;60.37;101899.91;5077051;28;20071;-62
2023/04/26 07:28:07;;;;;;;13.70;7.85;;;;;;;7.79;60.39;101897.16;5076968;28;20101;-62
2023/04/26 07:30:32;;;;;;;13.77;7.20;;;;;;;7.88;60.33;101900.59;5071455;28;20059;-62
2023/04/26 07:32:58;;;;;;;14.38;7.28;;;;;;;7.92;60.87;101896.34;5071795;28;20074;-63
2023/04/26 07:35:23;;;;;;;13.13;6.15;;;;;;;7.99;59.64;101894.44;5079307;28;20020;-62
2023/04/26 07:37:48;;;;;;;11.98;6.45;;;;;;;8.04;59.89;101891.88;5076556;28;20506;-62
2023/04/26 07:40:14;;;;;;;8.20;5.80;;;;;;;8.08;59.17;101887.63;5070150;28;20029;-62
2023/04/26 07:42:39;;;;;;;12.52;6.25;;;;;;;8.20;59.41;101885.09;5081762;28;20024;-62
2023/04/26 07:45:05;;;;;;;15.75;6.18;;;;;;;8.35;59.41;101877.44;5076598;28;20356;-62
2023/04/26 07:47:30;;;;;;;16.65;6.20;;;;;;;8.48;58.56;101876.59;5070174;28;20047;-62
2023/04/26 07:49:56;;;;;;;13.98;6.13;;;;;;;8.64;57.61;101874.44;5085287;28;20036;-62
2023/04/26 07:52:21;;;;;;;10.15;5.40;;;;;;;8.70;57.26;101881.91;5070616;28;20036;-62
2023/04/26 07:54:47;;;;;;;11.90;5.30;;;;;;;8.67;56.50;101868.50;5068729;28;20380;-62
2023/04/26 07:57:12;;;;;;;10.60;4.82;;;;;;;8.70;57.42;101884.69;5086522;28;20047;-62
2023/04/26 07:59:37;;;;;;;12.70;5.53;;;;;;;8.73;56.84;101887.03;5071697;28;20166;-62
2023/04/26 08:02:02;;;;;;;14.75;5.72;;;;;;;8.76;57.01;101884.66;5068937;28;20111;-62
2023/04/26 08:04:32;;;;;;;10.63;4.38;;;;;;;8.81;56.10;101893.16;5069762;28;20045;-62
2023/04/26 08:06:58;;;;;;;7.38;3.60;;;;;;;8.81;55.63;101889.56;5069483;28;20021;-62
2023/04/26 08:09:23;;;;;;;12.18;4.22;;;;;;;8.79;54.44;101894.44;5068982;28;20027;-62
2023/04/26 08:11:49;;;;;;;8.07;3.63;;;;;;;8.84;55.27;101897.41;5069719;28;20028;-62
2023/04/26 08:14:14;;;;;;;9.90;3.53;;;;;;;8.93;55.03;101901.66;5068749;28;20039;-62
2023/04/26 08:16:40;;;;;;;7.50;3.85;;;;;;;9.05;54.56;101904.63;5088886;28;20174;-62
2023/04/26 08:19:06;;;;;;;8.05;3.70;;;;;;;9.05;54.84;101905.47;5089549;28;20053;-62
2023/04/26 08:21:31;;;;;;;8.20;4.07;;;;;;;9.09;53.89;101906.72;5089882;28;20020;-62
2023/04/26 08:23:56;;;;;;;6.50;3.13;;;;;;;9.10;53.46;101896.50;5081014;28;20105;-62
2023/04/26 08:26:23;;;;;;;7.57;2.92;;;;;;;9.08;52.48;101887.56;5086296;28;20128;-62
2023/04/26 08:28:48;;;;;;;7.43;2.95;;;;;;;9.05;52.30;101896.31;5089903;28;20020;-62
2023/04/26 08:31:13;;;;;;;6.22;3.28;;;;;;;8.99;52.63;101892.47;5090047;28;20035;-62
2023/04/26 08:33:39;;;;;;;6.90;3.42;;;;;;;8.94;52.36;101894.19;5092949;28;20093;-62
2023/04/26 08:36:04;;;;;;;15.45;3.75;;;;;;;8.93;53.17;101898.91;5092492;28;20012;-62
2023/04/26 08:38:31;;;;;;;12.90;4.10;;;;;;;8.89;53.20;101894.00;5091326;28;20027;-62
2023/04/26 08:41:00;;;;;;;4.90;2.80;;;;;;;8.97;52.31;101891.84;5089420;28;20070;-62
2023/04/26 08:43:27;;;;;;;6.72;2.55;;;;;;;9.03;51.71;101895.66;5092921;28;20032;-63
2023/04/26 08:45:53;;;;;;;5.57;2.10;;;;;;;9.06;52.38;101896.06;5093311;28;20024;-63
2023/04/26 08:48:20;;;;;;;8.02;2.92;;;;;;;9.07;51.47;101889.47;5084780;28;20024;-62
2023/04/26 08:50:47;;;;;;;6.25;1.77;;;;;;;9.05;50.16;101899.91;5092475;28;20079;-62
2023/04/26 08:53:20;;;;;;;4.93;2.30;;;;;;;9.02;51.50;101894.81;5089329;28;20588;-62
2023/04/26 08:55:49;;;;;;;10.45;2.80;;;;;;;9.01;51.20;101887.59;5093454;28;20055;-62
2023/04/26 08:58:15;;;;;;;7.80;2.67;;;;;;;9.05;51.44;101888.84;5091904;28;20028;-62
2023/04/26 09:00:47;;;;;;;9.48;3.00;;;;;;;9.06;50.63;101890.53;5077325;28;20086;-62
2023/04/26 09:03:13;;;;;;;6.00;3.10;;;;;;;9.06;50.02;101893.31;5072562;28;20039;-62
2023/04/26 09:05:42;;;;;;;6.80;3.17;;;;;;;9.09;50.98;101892.03;5081603;28;20028;-62
2023/04/26 09:08:12;;;;;;;6.88;3.10;;;;;;;9.16;50.85;101890.09;5092639;28;20034;-62
2023/04/26 09:10:37;;;;;;;8.88;3.42;;;;;;;9.16;49.73;101883.72;5092994;28;20035;-62
2023/04/26 09:13:02;;;;;;;8.10;3.30;;;;;;;9.23;50.83;101884.50;5092144;28;20033;-62
2023/04/26 09:15:28;;;;;;;9.95;4.03;;;;;;;9.27;51.24;101881.06;5092758;28;20054;-62
2023/04/26 09:17:53;;;;;;;7.38;3.42;;;;;;;9.28;50.40;101876.41;5092622;28;20036;-62
2023/04/26 09:20:27;;;;;;;8.90;3.38;;;;;;;9.30;50.25;101869.56;5082903;28;20066;-62
2023/04/26 09:23:02;;;;;;;7.75;3.85;;;;;;;9.39;50.84;101867.38;5072634;28;20040;-63
2023/04/26 09:25:29;;;;;;;6.00;3.10;;;;;;;9.46;50.65;101868.22;5071645;28;20380;-62
2023/04/26 09:27:55;;;;;;;7.03;3.20;;;;;;;9.50;49.68;101868.63;5072311;28;20024;-62
2023/04/26 09:30:21;;;;;;;10.00;3.38;;;;;;;9.45;49.03;101872.06;5072277;28;20545;-62
2023/04/26 09:32:57;;;;;;;6.30;3.28;;;;;;;9.43;49.52;101874.22;5071663;28;20502;-62
2023/04/26 09:35:31;;;;;;;12.32;3.55;;;;;;;9.50;50.59;101879.72;5077357;28;20034;-62
2023/04/26 09:37:58;;;;;;;7.47;3.58;;;;;;;9.49;49.59;101881.63;5092131;28;20062;-62
2023/04/26 09:40:25;;;;;;;7.25;3.40;;;;;;;9.47;49.15;101875.47;5090691;28;20085;-62
2023/04/26 09:43:16;;;;;;;7.38;3.50;;;;;;;9.50;49.20;101886.09;5091697;28;20036;-62
2023/04/26 09:45:56;;;;;;;7.90;3.90;;;;;;;9.52;49.95;101881.19;5089420;28;20063;-62
2023/04/26 09:48:25;;;;;;;6.10;3.42;;;;;;;9.55;49.55;101883.53;5091614;28;20016;-62
2023/04/26 09:50:53;;;;;;;7.63;3.72;;;;;;;9.57;49.58;101878.59;5088979;28;20461;-62
2023/04/26 09:53:36;;;;;;;7.93;3.78;;;;;;;9.63;49.73;101874.09;5071271;28;20111;-62
2023/04/26 09:56:07;;;;;;;6.40;3.78;;;;;;;9.66;48.59;101878.34;5071699;28;20051;-62
2023/04/26 09:58:32;;;;;;;7.15;3.97;;;;;;;9.69;48.45;101872.34;5071994;28;20029;-62
2023/04/26 10:00:58;;;;;;;4.55;3.40;;;;;;;9.73;47.96;101877.22;5072323;28;20563;-62
2023/04/26 10:03:24;;;;;;;7.72;3.92;;;;;;;9.71;47.29;101875.78;5076053;28;20031;-62
2023/04/26 10:05:49;;;;;;;5.30;3.80;;;;;;;9.69;47.67;101870.44;5091804;28;20047;-62
2023/04/26 10:08:15;;;;;;;6.15;3.83;;;;;;;9.70;48.44;101869.34;5082642;28;20081;-62
2023/04/26 10:10:41;;;;;;;5.22;3.00;;;;;;;9.65;47.93;101877.50;5080107;28;20032;-62
2023/04/26 10:13:07;;;;;;;7.32;3.47;;;;;;;9.65;47.47;101876.66;5091370;28;20107;-62
2023/04/26 10:15:34;;;;;;;6.75;3.30;;;;;;;9.66;48.32;101876.41;5084966;28;20580;-62
2023/04/26 10:17:59;;;;;;;11.68;3.53;;;;;;;9.67;47.40;101871.72;5091462;28;20082;-62
2023/04/26 10:20:27;;;;;;;8.85;3.55;;;;;;;9.67;47.96;101872.59;5091849;28;20059;-62
2023/04/26 10:23:00;;;;;;;16.05;4.95;;;;;;;9.68;48.48;101881.75;5090273;28;20030;-62
2023/04/26 10:25:36;;;;;;;9.82;4.05;;;;;;;9.68;49.26;101876.22;5085086;28;20449;-62
2023/04/26 10:28:02;;;;;;;34.80;6.65;;;;;;;9.66;48.65;101878.34;5070392;28;20020;-62
2023/04/26 10:30:28;;;;;;;12.57;4.60;;;;;;;9.61;48.92;101878.16;5078569;28;20486;-62
2023/04/26 10:32:56;;;;;;;8.65;4.20;;;;;;;9.63;49.55;101876.88;5082749;28;20036;-62
2023/04/26 10:35:23;;;;;;;6.90;3.72;;;;;;;9.67;50.15;101872.59;5083229;28;20491;-62
2023/04/26 10:38:00;;;;;;;8.60;4.13;;;;;;;9.65;49.56;101876.66;5070057;28;20036;-61
2023/04/26 10:40:45;;;;;;;10.32;4.18;;;;;;;9.66;49.76;101867.25;5075779;28;20043;-61
2023/04/26 10:43:10;;;;;;;7.10;4.43;;;;;;;9.69;49.76;101878.75;5070651;28;20032;-63
2023/04/26 10:45:37;;;;;;;8.02;4.65;;;;;;;9.72;49.50;101869.16;5074472;28;20213;-63
2023/04/26 10:48:19;;;;;;;7.03;4.38;;;;;;;9.73;50.10;101859.75;5071613;28;20059;-63
2023/04/26 10:51:12;;;;;;;9.18;4.15;;;;;;;9.76;49.68;101865.69;5078789;28;20028;-61
2023/04/26 10:53:43;;;;;;;9.23;4.03;;;;;;;9.76;48.61;101865.69;5072971;28;20032;-64
2023/04/26 10:56:08;;;;;;;7.82;4.03;;;;;;;9.77;48.46;101858.22;5071029;28;20032;-62
2023/04/26 10:58:34;;;;;;;8.23;4.20;;;;;;;9.78;49.28;101862.69;5089035;28;20067;-64
2023/04/26 11:01:07;;;;;;;10.93;4.72;;;;;;;9.80;48.60;101861.41;5086578;28;20520;-63
2023/04/26 11:03:33;;;;;;;9.68;4.90;;;;;;;9.84;49.23;101862.66;5074500;28;20535;-59
2023/04/26 11:05:59;;;;;;;8.82;4.90;;;;;;;9.91;49.43;101859.84;5072827;28;20103;-59
2023/04/26 11:08:31;;;;;;;10.07;4.38;;;;;;;10.17;52.37;101847.69;5069424;28;20025;-59
2023/04/26 11:10:57;;;;;;;10.15;4.85;;;;;;;10.14;48.58;101847.28;5072676;28;20039;-59
2023/04/26 11:13:23;;;;;;;8.75;5.18;;;;;;;10.13;48.21;101848.38;5077266;28;20025;-64
2023/04/26 11:15:53;;;;;;;9.52;4.88;;;;;;;10.11;48.84;101843.06;5060304;28;20506;-65
2023/04/26 11:18:20;;;;;;;8.25;4.80;;;;;;;10.04;47.55;101847.81;5058345;28;20032;-64
2023/04/26 11:20:45;;;;;;;9.43;5.05;;;;;;;10.09;47.96;101845.19;5065802;28;20016;-64
2023/04/26 11:23:11;;;;;;;9.60;5.10;;;;;;;10.07;47.31;101844.59;5050200;28;20044;-64